Time;durP1;ratioP1;P1;durP2;ratioP2;P2;SDS_P1;SDS_P2;PMS_P1;PMS_P2;Temp;Humidity;BMP_temperature;BMP_pressure;BME280_temperature;BME280_humidity;BME280_pressure;Samples;Min_cycle;Max_cycle;Signal;HPM_P1;HPM_P2
2023/02/16 00:02:13;;;;;;;47.47;34.37;;;8.10;1.00;;;;;;5055889;28;20189;-84
2023/02/16 00:04:39;;;;;;;46.40;34.83;;;8.10;1.00;;;;;;5076583;28;20173;-86
2023/02/16 00:07:05;;;;;;;49.27;34.03;;;8.40;1.00;;;;;;5057486;28;20178;-88
2023/02/16 00:09:30;;;;;;;43.83;34.77;;;8.50;1.00;;;;;;5043518;28;20181;-87
2023/02/16 00:14:41;;;;;;;48.17;34.83;;;8.20;1.00;;;;;;5043878;28;20180;-81
2023/02/16 00:17:10;;;;;;;46.17;36.30;;;8.10;1.00;;;;;;5058728;28;20161;-79
2023/02/16 00:19:41;;;;;;;49.70;35.53;;;8.00;1.00;;;;;;5056012;28;20209;-81
2023/02/16 00:22:07;;;;;;;48.37;36.63;;;8.00;1.00;;;;;;5040957;28;20150;-84
2023/02/16 00:24:34;;;;;;;49.30;36.17;;;8.00;1.00;;;;;;5040732;28;20186;-82
2023/02/16 00:27:00;;;;;;;50.37;36.70;;;8.20;1.00;;;;;;5055446;28;20155;-88
2023/02/16 00:29:36;;;;;;;45.97;36.20;;;8.30;1.00;;;;;;5051045;28;20183;-89
2023/02/16 00:32:12;;;;;;;47.07;35.60;;;8.50;1.00;;;;;;5055591;28;20157;-89
2023/02/16 00:34:41;;;;;;;48.83;36.43;;;8.30;1.00;;;;;;5054005;28;20215;-87
2023/02/16 00:37:13;;;;;;;47.83;35.83;;;8.30;1.00;;;;;;5051285;28;20217;-90
2023/02/16 00:43:24;;;;;;;47.13;34.83;;;8.00;1.00;;;;;;5022063;28;20274;-91
2023/02/16 00:45:56;;;;;;;48.93;35.73;;;7.80;1.00;;;;;;5020290;28;20179;-87
2023/02/16 00:48:23;;;;;;;47.30;34.13;;;7.90;1.00;;;;;;5020106;28;20167;-88
2023/02/16 00:50:48;;;;;;;49.40;36.40;;;7.80;1.00;;;;;;5031879;28;20212;-85
2023/02/16 00:53:14;;;;;;;45.27;35.30;;;7.80;1.00;;;;;;5029828;28;20201;-89
2023/02/16 00:55:43;;;;;;;45.37;34.93;;;7.90;1.00;;;;;;5022683;28;20166;-92
2023/02/16 00:58:25;;;;;;;46.63;34.83;;;7.80;1.00;;;;;;5027820;28;20182;-91
2023/02/16 01:01:07;;;;;;;47.53;35.07;;;7.70;1.00;;;;;;5035718;28;20170;-89
2023/02/16 01:04:26;;;;;;;46.53;35.80;;;7.70;1.00;;;;;;5045796;28;20575;-91
2023/02/16 01:12:26;;;;;;;50.63;37.50;;;7.50;1.20;;;;;;5023779;28;20201;-88
2023/02/16 01:14:54;;;;;;;46.73;36.23;;;7.60;3.10;;;;;;5018565;28;20166;-87
2023/02/16 01:17:22;;;;;;;49.80;37.57;;;7.60;2.30;;;;;;5048984;28;20185;-90
2023/02/16 01:19:47;;;;;;;49.53;36.67;;;7.70;1.50;;;;;;5025885;28;20206;-91
2023/02/16 01:22:13;;;;;;;45.03;34.80;;;7.70;1.00;;;;;;5020131;28;20212;-90
2023/02/16 01:24:40;;;;;;;49.90;36.50;;;7.60;1.00;;;;;;5020206;28;20154;-92
2023/02/16 01:27:11;;;;;;;46.27;35.20;;;7.60;1.80;;;;;;5034721;28;20211;-90
2023/02/16 01:29:37;;;;;;;49.53;37.23;;;7.60;2.40;;;;;;5019399;28;20646;-86
2023/02/16 01:32:03;;;;;;;48.30;38.23;;;7.50;3.30;;;;;;5032407;28;20209;-83
2023/02/16 01:34:30;;;;;;;48.60;36.50;;;7.50;4.60;;;;;;5057252;28;20166;-89
2023/02/16 01:36:55;;;;;;;50.10;37.67;;;7.60;5.50;;;;;;5052651;28;20162;-83
2023/02/16 01:39:24;;;;;;;51.93;38.17;;;7.60;4.70;;;;;;5048256;28;20683;-88
2023/02/16 01:42:36;;;;;;;48.53;35.47;;;7.90;2.50;;;;;;5047044;28;20158;-89
2023/02/16 01:45:17;;;;;;;49.83;37.03;;;8.00;1.00;;;;;;5056698;28;20174;-82
2023/02/16 01:47:54;;;;;;;45.47;35.63;;;8.00;1.00;;;;;;5055826;28;20514;-85
2023/02/16 01:50:29;;;;;;;49.47;36.90;;;7.80;1.00;;;;;;5022672;28;20221;-90
2023/02/16 01:53:24;;;;;;;51.57;36.97;;;7.60;1.00;;;;;;5018548;28;20170;-88
2023/02/16 01:55:57;;;;;;;44.77;34.40;;;7.50;4.20;;;;;;5016827;28;20181;-88
2023/02/16 01:58:51;;;;;;;47.70;34.83;;;7.50;8.90;;;;;;5019175;28;20356;-89
2023/02/16 02:01:39;;;;;;;43.87;33.73;;;7.40;11.20;;;;;;5026065;28;20189;-86
2023/02/16 02:07:42;;;;;;;46.10;34.50;;;7.50;12.40;;;;;;5052838;28;20184;-90
2023/02/16 02:13:46;;;;;;;44.87;35.63;;;7.60;13.50;;;;;;5075306;28;20164;-90
2023/02/16 02:16:21;;;;;;;47.27;35.13;;;7.50;14.20;;;;;;5048255;28;20724;-89
2023/02/16 02:18:57;;;;;;;47.00;34.77;;;7.60;14.30;;;;;;5041089;28;20228;-91
2023/02/16 02:25:00;;;;;;;45.07;34.07;;;7.60;15.40;;;;;;5057675;28;20605;-86
2023/02/16 02:27:27;;;;;;;47.73;34.80;;;7.60;16.50;;;;;;5032074;28;20188;-81
2023/02/16 02:30:19;;;;;;;45.77;34.73;;;7.70;16.10;;;;;;5055453;28;20189;-89
2023/02/16 02:32:54;;;;;;;43.13;33.80;;;7.80;14.80;;;;;;5035303;28;20212;-89
2023/02/16 02:35:27;;;;;;;45.47;33.10;;;7.80;13.40;;;;;;5032947;28;20249;-88
2023/02/16 02:38:11;;;;;;;44.53;33.20;;;7.90;13.10;;;;;;5031371;28;20201;-89
2023/02/16 02:40:59;;;;;;;42.00;33.37;;;7.90;13.20;;;;;;5023148;28;20185;-90
2023/02/16 02:43:51;;;;;;;44.97;33.53;;;8.10;8.70;;;;;;5016768;28;20181;-83
2023/02/16 02:46:16;;;;;;;43.47;34.40;;;8.20;1.90;;;;;;5015612;28;20287;-88
2023/02/16 02:48:42;;;;;;;45.93;32.80;;;8.20;2.90;;;;;;5018154;28;20183;-89
2023/02/16 03:03:10;;;;;;;42.93;33.43;;;8.40;1.00;;;;;;5018082;28;20189;-89
2023/02/16 03:05:39;;;;;;;46.03;34.20;;;8.50;1.00;;;;;;5018506;28;20186;-87
2023/02/16 03:08:14;;;;;;;45.40;34.17;;;8.30;1.00;;;;;;5028504;28;20162;-81
2023/02/16 03:14:09;;;;;;;42.53;32.47;;;8.00;1.00;;;;;;5040825;28;20180;-87
2023/02/16 03:16:43;;;;;;;42.80;32.07;;;8.00;3.80;;;;;;5018925;28;20634;-89
2023/02/16 03:30:18;;;;;;;43.30;32.20;;;7.70;15.40;;;;;;5021126;28;20657;-89
2023/02/16 03:32:44;;;;;;;42.97;32.43;;;7.60;17.50;;;;;;5021913;28;20186;-87
2023/02/16 03:35:11;;;;;;;44.17;32.43;;;7.70;16.30;;;;;;5021715;28;20182;-84
2023/02/16 03:37:38;;;;;;;45.83;34.00;;;7.70;16.50;;;;;;5022366;28;20181;-87
2023/02/16 03:42:55;;;;;;;47.03;31.70;;;7.60;19.40;;;;;;5042383;28;20180;-90
2023/02/16 03:45:22;;;;;;;41.90;31.07;;;7.50;22.10;;;;;;5027935;28;20259;-87
2023/02/16 03:47:47;;;;;;;45.43;34.20;;;7.50;23.50;;;;;;5020954;28;20185;-89
2023/02/16 03:50:15;;;;;;;40.90;31.40;;;7.50;25.80;;;;;;5021941;28;20210;-91
2023/02/16 03:52:41;;;;;;;42.30;32.27;;;7.50;24.90;;;;;;5020957;28;20170;-89
2023/02/16 03:55:06;;;;;;;39.23;30.80;;;7.50;25.80;;;;;;5021911;28;20178;-90
2023/02/16 03:57:32;;;;;;;43.13;32.93;;;7.50;27.70;;;;;;5021719;28;20655;-90
2023/02/16 03:59:58;;;;;;;43.30;32.30;;;7.50;28.40;;;;;;5039546;28;20217;-90
2023/02/16 04:02:29;;;;;;;39.00;29.83;;;7.50;27.30;;;;;;5047349;28;20212;-89
2023/02/16 04:04:55;;;;;;;39.00;31.23;;;7.60;26.40;;;;;;5043936;28;20181;-91
2023/02/16 04:07:21;;;;;;;40.87;31.30;;;7.50;26.40;;;;;;5040347;28;20242;-90
2023/02/16 04:09:47;;;;;;;41.03;30.50;;;7.50;27.30;;;;;;5041557;28;20260;-86
2023/02/16 04:14:57;;;;;;;38.53;29.97;;;7.50;28.00;;;;;;5045866;28;20169;-85
2023/02/16 04:17:23;;;;;;;39.27;29.97;;;7.40;29.10;;;;;;5054094;28;20186;-82
2023/02/16 04:20:40;;;;;;;40.43;31.20;;;7.40;30.30;;;;;;5027298;28;20218;-91
2023/02/16 04:23:06;;;;;;;38.07;30.40;;;7.40;30.70;;;;;;5043869;28;20209;-87
2023/02/16 04:25:33;;;;;;;40.60;30.10;;;7.50;30.00;;;;;;5058688;28;20166;-84
2023/02/16 04:27:59;;;;;;;39.37;28.30;;;7.50;31.00;;;;;;5059642;28;20190;-87
2023/02/16 04:30:35;;;;;;;41.73;29.20;;;7.50;30.60;;;;;;5055026;28;20188;-89
2023/02/16 04:33:54;;;;;;;40.83;30.60;;;7.50;29.40;;;;;;5030932;28;20185;-89
2023/02/16 04:36:19;;;;;;;37.53;30.30;;;7.70;25.90;;;;;;5028523;28;20209;-89
2023/02/16 04:38:45;;;;;;;38.13;29.23;;;7.60;26.20;;;;;;5039473;28;20198;-87
2023/02/16 04:41:10;;;;;;;38.57;30.10;;;7.60;27.20;;;;;;5038884;28;20209;-87
2023/02/16 04:43:39;;;;;;;41.37;31.00;;;7.60;27.60;;;;;;5039555;28;20182;-85
2023/02/16 04:46:07;;;;;;;39.83;29.33;;;7.60;28.40;;;;;;5040911;28;20193;-88
2023/02/16 04:48:33;;;;;;;40.37;29.63;;;7.60;29.30;;;;;;5037389;28;20175;-87
2023/02/16 04:51:11;;;;;;;39.27;30.23;;;7.60;29.30;;;;;;5053928;28;20197;-85
2023/02/16 04:53:41;;;;;;;39.27;31.03;;;7.60;30.20;;;;;;5049990;28;20145;-82
2023/02/16 04:56:13;;;;;;;38.53;29.60;;;7.70;28.70;;;;;;5059830;28;20161;-82
2023/02/16 04:58:40;;;;;;;39.37;30.80;;;7.70;25.60;;;;;;5056758;28;20200;-81
2023/02/16 05:01:30;;;;;;;37.77;29.07;;;7.80;26.50;;;;;;5053174;28;20207;-89
2023/02/16 05:04:24;;;;;;;36.57;28.70;;;7.80;26.80;;;;;;5043955;28;20503;-84
2023/02/16 05:06:50;;;;;;;40.20;30.37;;;7.70;27.80;;;;;;5051577;28;20169;-84
2023/02/16 05:09:16;;;;;;;40.93;30.20;;;7.80;27.60;;;;;;5034538;28;20189;-91
2023/02/16 05:14:41;;;;;;;38.30;29.77;;;7.80;28.10;;;;;;5036117;28;20224;-82
2023/02/16 05:17:14;;;;;;;40.77;30.07;;;7.90;25.10;;;;;;5020690;28;20186;-89
2023/02/16 05:19:59;;;;;;;40.27;31.00;;;8.00;21.80;;;;;;5020261;28;20202;-89
2023/02/16 05:22:25;;;;;;;38.83;30.13;;;7.90;25.00;;;;;;5054869;28;20193;-88
2023/02/16 05:24:52;;;;;;;37.47;27.90;;;8.00;26.10;;;;;;5055412;28;20205;-90
2023/02/16 05:27:23;;;;;;;40.77;29.20;;;7.90;27.80;;;;;;5039130;28;20162;-91
2023/02/16 05:29:49;;;;;;;40.53;29.77;;;7.90;28.40;;;;;;5041051;28;20169;-90
2023/02/16 05:32:15;;;;;;;37.63;29.50;;;8.00;27.20;;;;;;5044227;28;20650;-88
2023/02/16 05:34:43;;;;;;;38.33;28.77;;;8.00;26.60;;;;;;5042658;28;20166;-85
2023/02/16 05:37:11;;;;;;;41.93;29.23;;;8.00;26.10;;;;;;5044577;28;20705;-89
2023/02/16 05:39:38;;;;;;;39.27;29.07;;;8.10;26.70;;;;;;5053135;28;20228;-89
2023/02/16 05:42:04;;;;;;;39.40;29.87;;;8.10;25.90;;;;;;5039052;28;20239;-91
2023/02/16 05:44:30;;;;;;;39.07;28.50;;;8.20;22.50;;;;;;5038876;28;20619;-90
2023/02/16 05:46:56;;;;;;;43.10;28.70;;;8.10;20.00;;;;;;5038707;28;20212;-89
2023/02/16 05:49:22;;;;;;;33.87;27.73;;;8.20;21.20;;;;;;5040648;28;20227;-82
2023/02/16 05:51:49;;;;;;;39.13;29.30;;;8.10;21.60;;;;;;5052911;28;20174;-85
2023/02/16 05:54:17;;;;;;;33.83;26.43;;;8.10;22.20;;;;;;5039238;28;20548;-90
2023/02/16 05:56:45;;;;;;;37.87;29.23;;;8.10;23.40;;;;;;5025244;28;20182;-91
2023/02/16 05:59:11;;;;;;;37.63;28.03;;;8.10;23.10;;;;;;5040159;28;20206;-83
2023/02/16 06:01:39;;;;;;;40.40;29.23;;;8.00;24.20;;;;;;5019438;28;20185;-90
2023/02/16 06:04:09;;;;;;;34.60;28.27;;;8.10;24.60;;;;;;5018555;28;20174;-89
2023/02/16 06:06:38;;;;;;;36.60;28.70;;;8.10;22.40;;;;;;5048792;28;20208;-91
2023/02/16 06:09:06;;;;;;;39.30;30.23;;;8.10;23.50;;;;;;5043523;28;20189;-88
2023/02/16 06:11:34;;;;;;;37.93;29.40;;;8.00;25.30;;;;;;5038400;28;20185;-90
2023/02/16 06:14:01;;;;;;;39.17;29.37;;;8.10;26.10;;;;;;5037346;28;20651;-91
2023/02/16 06:16:30;;;;;;;37.07;29.57;;;8.20;26.30;;;;;;5045405;28;20169;-90
2023/02/16 06:18:56;;;;;;;36.77;28.47;;;8.10;25.40;;;;;;5046235;28;20201;-90
2023/02/16 06:21:23;;;;;;;36.77;28.77;;;8.10;26.20;;;;;;5026534;28;20189;-86
2023/02/16 06:23:55;;;;;;;36.47;28.13;;;8.10;24.20;;;;;;5019604;28;20174;-89
2023/02/16 06:26:21;;;;;;;39.30;27.80;;;8.20;24.70;;;;;;5021007;28;20194;-90
2023/02/16 06:28:46;;;;;;;37.43;29.17;;;8.30;22.40;;;;;;5020350;28;20225;-82
2023/02/16 06:31:12;;;;;;;35.27;27.80;;;8.30;19.80;;;;;;5022344;28;20257;-87
2023/02/16 06:33:38;;;;;;;37.83;28.60;;;8.40;17.20;;;;;;5022851;28;20174;-89
2023/02/16 06:36:06;;;;;;;42.63;29.47;;;8.50;14.90;;;;;;5020863;28;20174;-89
2023/02/16 06:38:34;;;;;;;36.37;28.70;;;8.50;15.20;;;;;;5020977;28;20218;-86
2023/02/16 06:41:00;;;;;;;39.90;29.77;;;8.50;14.40;;;;;;5022171;28;20250;-89
2023/02/16 06:43:26;;;;;;;37.00;28.83;;;8.40;16.50;;;;;;5026551;28;20265;-89
2023/02/16 06:45:52;;;;;;;42.20;28.27;;;8.30;17.90;;;;;;5038498;28;20182;-86
2023/02/16 06:48:17;;;;;;;38.03;28.13;;;8.40;17.10;;;;;;5038164;28;20205;-83
2023/02/16 06:50:43;;;;;;;37.50;28.67;;;8.30;18.20;;;;;;5026135;28;20208;-87
2023/02/16 06:53:11;;;;;;;38.20;26.50;;;8.30;20.30;;;;;;5030196;28;20204;-84
2023/02/16 06:55:36;;;;;;;36.37;28.57;;;8.30;21.50;;;;;;5038753;28;20182;-86
2023/02/16 06:58:03;;;;;;;38.70;27.97;;;8.40;20.80;;;;;;5033779;28;20209;-82
2023/02/16 07:00:29;;;;;;;38.57;28.63;;;8.40;20.10;;;;;;5036897;28;20173;-81
2023/02/16 07:02:55;;;;;;;37.43;28.13;;;8.40;20.30;;;;;;5063238;28;20233;-85
2023/02/16 07:05:21;;;;;;;38.77;28.03;;;8.60;17.00;;;;;;5036344;28;20178;-82
2023/02/16 07:07:49;;;;;;;37.70;27.87;;;8.40;15.90;;;;;;5056879;28;20177;-84
2023/02/16 07:10:16;;;;;;;37.67;26.93;;;8.40;18.30;;;;;;5046404;28;20157;-89
2023/02/16 07:12:42;;;;;;;38.20;29.00;;;8.40;19.10;;;;;;5053697;28;20186;-86
2023/02/16 07:15:09;;;;;;;35.47;27.37;;;8.40;19.30;;;;;;5064569;28;20201;-85
2023/02/16 07:17:35;;;;;;;38.90;27.83;;;8.40;21.00;;;;;;5037725;28;20173;-81
2023/02/16 07:20:05;;;;;;;41.93;28.47;;;8.40;21.50;;;;;;5037451;28;20197;-80
2023/02/16 07:22:31;;;;;;;33.90;27.97;;;8.30;21.20;;;;;;5052757;28;20614;-82
2023/02/16 07:25:01;;;;;;;38.50;29.03;;;8.40;23.50;;;;;;5052501;28;20169;-83
2023/02/16 07:27:27;;;;;;;38.80;29.20;;;8.50;19.60;;;;;;5047503;28;20180;-82
2023/02/16 07:29:53;;;;;;;37.53;28.07;;;8.50;19.90;;;;;;5045562;28;20268;-86
2023/02/16 07:32:19;;;;;;;42.73;29.30;;;8.60;18.80;;;;;;5038996;28;20169;-86
2023/02/16 07:34:45;;;;;;;37.73;30.20;;;8.50;16.90;;;;;;5037187;28;20630;-87
2023/02/16 07:37:12;;;;;;;40.53;28.40;;;8.50;18.40;;;;;;5037242;28;20174;-87
2023/02/16 07:39:38;;;;;;;41.97;27.80;;;8.50;19.00;;;;;;5036454;28;20735;-79
2023/02/16 07:42:04;;;;;;;40.20;29.40;;;8.50;17.70;;;;;;5035591;28;20169;-86
2023/02/16 07:44:30;;;;;;;37.47;28.43;;;8.50;17.40;;;;;;5036112;28;20196;-85
2023/02/16 07:46:56;;;;;;;37.03;28.57;;;8.50;18.00;;;;;;5052434;28;20178;-87
2023/02/16 07:49:21;;;;;;;40.63;28.50;;;8.50;18.20;;;;;;5040076;28;20249;-82
2023/02/16 07:51:47;;;;;;;41.20;28.83;;;8.40;18.90;;;;;;5035771;28;20189;-86
2023/02/16 07:54:14;;;;;;;40.93;28.30;;;8.50;19.80;;;;;;5051235;28;20180;-86
2023/02/16 07:56:39;;;;;;;42.30;29.43;;;8.50;17.60;;;;;;5035601;28;20174;-86
2023/02/16 07:59:05;;;;;;;38.40;28.70;;;8.50;17.50;;;;;;5024337;28;20205;-84
2023/02/16 08:01:33;;;;;;;38.03;28.23;;;8.50;18.10;;;;;;5027841;28;20178;-85
2023/02/16 08:03:58;;;;;;;39.80;27.90;;;8.50;19.30;;;;;;5043068;28;20676;-84
2023/02/16 08:06:24;;;;;;;40.43;28.97;;;8.40;19.80;;;;;;5038267;28;20228;-84
2023/02/16 08:08:52;;;;;;;38.20;27.20;;;8.50;20.60;;;;;;5045544;28;20173;-84
2023/02/16 08:11:21;;;;;;;38.40;28.63;;;8.60;20.50;;;;;;5065029;28;20212;-81
2023/02/16 08:13:47;;;;;;;36.80;26.87;;;8.60;18.40;;;;;;5063832;28;20173;-84
2023/02/16 08:16:21;;;;;;;40.00;27.83;;;8.60;19.50;;;;;;5068698;28;20207;-84
2023/02/16 08:18:47;;;;;;;35.43;27.60;;;8.70;19.00;;;;;;5059112;28;20201;-83
2023/02/16 08:21:18;;;;;;;35.57;26.77;;;8.70;18.80;;;;;;5054996;28;20254;-80
2023/02/16 08:23:53;;;;;;;38.30;26.73;;;8.90;14.00;;;;;;5035127;28;20178;-82
2023/02/16 08:26:19;;;;;;;36.33;28.20;;;8.80;12.60;;;;;;5046848;28;20660;-86
2023/02/16 08:28:48;;;;;;;37.63;27.50;;;8.80;14.70;;;;;;5024602;28;20198;-85
2023/02/16 08:31:37;;;;;;;37.37;27.63;;;8.90;14.40;;;;;;5025210;28;20234;-86
2023/02/16 08:34:06;;;;;;;37.37;27.10;;;9.00;11.00;;;;;;5019387;28;20169;-85
2023/02/16 08:39:55;;;;;;;37.57;27.23;;;8.90;8.30;;;;;;5020015;28;20221;-82
2023/02/16 08:42:20;;;;;;;40.00;27.83;;;8.90;12.00;;;;;;5031236;28;20250;-87
2023/02/16 08:44:46;;;;;;;35.70;27.07;;;8.90;12.10;;;;;;5046798;28;20188;-86
2023/02/16 08:47:12;;;;;;;38.00;28.23;;;8.80;12.60;;;;;;5046577;28;20534;-80
2023/02/16 08:49:38;;;;;;;36.47;28.07;;;8.90;13.30;;;;;;5047345;28;20201;-81
2023/02/16 08:52:04;;;;;;;35.03;27.23;;;9.00;14.00;;;;;;5048402;28;20177;-83
2023/02/16 08:54:32;;;;;;;35.73;27.27;;;9.00;15.10;;;;;;5040558;28;20181;-87
2023/02/16 08:57:00;;;;;;;36.83;28.63;;;9.00;13.30;;;;;;5045481;28;20157;-89
2023/02/16 08:59:26;;;;;;;39.60;28.03;;;9.00;17.60;;;;;;5048091;28;20197;-88
2023/02/16 09:01:52;;;;;;;38.57;27.10;;;9.10;20.00;;;;;;5047081;28;20204;-88
2023/02/16 09:04:19;;;;;;;36.10;28.93;;;9.00;22.30;;;;;;5046794;28;20209;-88
2023/02/16 09:06:47;;;;;;;38.87;29.53;;;9.10;26.50;;;;;;5055661;28;20217;-87
2023/02/16 09:09:13;;;;;;;42.67;29.70;;;9.10;28.40;;;;;;5041744;28;20243;-85
2023/02/16 09:11:39;;;;;;;42.33;29.77;;;9.10;30.80;;;;;;5052726;28;20644;-84
2023/02/16 09:14:08;;;;;;;40.50;29.63;;;9.10;32.10;;;;;;5047181;28;20169;-85
2023/02/16 09:16:37;;;;;;;41.00;30.57;;;9.10;36.90;;;;;;5045560;28;20222;-85
2023/02/16 09:19:03;;;;;;;42.80;28.67;;;9.10;40.30;;;;;;5042143;28;20287;-88
2023/02/16 09:21:32;;;;;;;39.37;29.70;;;9.10;40.70;;;;;;5050881;28;20267;-87
2023/02/16 09:24:00;;;;;;;40.57;28.27;;;9.10;41.70;;;;;;5050312;28;20174;-86
2023/02/16 09:26:31;;;;;;;37.17;29.00;;;9.10;44.30;;;;;;5059931;28;20195;-87
2023/02/16 09:28:56;;;;;;;40.80;29.37;;;9.20;42.60;;;;;;5064330;28;20212;-85
2023/02/16 09:31:33;;;;;;;37.93;29.87;;;9.20;39.60;;;;;;5055760;28;20174;-86
2023/02/16 09:34:04;;;;;;;38.20;27.73;;;9.20;35.80;;;;;;5045607;28;20204;-87
2023/02/16 09:36:31;;;;;;;40.60;30.97;;;9.00;40.60;;;;;;5040943;28;20169;-86
2023/02/16 09:38:57;;;;;;;38.83;29.33;;;9.10;45.10;;;;;;5047379;28;20590;-88
2023/02/16 09:41:54;;;;;;;42.00;29.00;;;9.10;45.60;;;;;;5040930;28;20180;-84
2023/02/16 09:44:44;;;;;;;40.23;29.23;;;9.10;47.60;;;;;;5058081;28;20192;-80
2023/02/16 09:47:24;;;;;;;40.60;30.37;;;9.00;50.50;;;;;;5056063;28;20173;-82
2023/02/16 09:49:55;;;;;;;37.43;30.10;;;9.00;54.10;;;;;;5049634;28;20197;-83
2023/02/16 09:52:52;;;;;;;39.70;30.27;;;9.00;53.70;;;;;;5046485;28;20165;-83
2023/02/16 09:55:19;;;;;;;38.23;29.10;;;9.20;53.50;;;;;;5042124;28;20193;-87
2023/02/16 09:58:00;;;;;;;41.47;30.93;;;9.00;50.10;;;;;;5057514;28;20169;-83
2023/02/16 10:00:31;;;;;;;40.17;30.17;;;9.00;51.10;;;;;;5047226;28;20203;-87
2023/02/16 10:03:10;;;;;;;43.70;30.30;;;9.00;50.60;;;;;;5063139;28;20184;-88
2023/02/16 10:05:53;;;;;;;40.27;31.27;;;9.00;51.60;;;;;;5067541;28;20176;-82
2023/02/16 10:08:39;;;;;;;41.77;29.33;;;9.00;53.10;;;;;;5053121;28;20261;-86
2023/02/16 10:11:37;;;;;;;43.87;31.03;;;9.10;50.70;;;;;;5047083;28;20268;-88
2023/02/16 10:14:40;;;;;;;39.53;29.37;;;9.10;51.80;;;;;;5041429;28;20173;-85
2023/02/16 10:17:28;;;;;;;45.50;31.53;;;9.20;48.90;;;;;;5037523;28;20509;-88
2023/02/16 10:20:04;;;;;;;38.93;29.50;;;9.40;49.90;;;;;;5042656;28;20219;-85
2023/02/16 10:22:44;;;;;;;38.90;29.87;;;9.50;49.30;;;;;;5040501;28;20176;-80
2023/02/16 10:25:15;;;;;;;42.93;27.93;;;9.50;46.90;;;;;;5043982;28;20205;-87
2023/02/16 10:27:44;;;;;;;36.70;29.37;;;9.50;45.10;;;;;;5042956;28;20196;-85
2023/02/16 10:30:21;;;;;;;39.33;28.57;;;9.50;45.90;;;;;;5050978;28;20180;-84
2023/02/16 10:33:08;;;;;;;37.33;28.33;;;9.60;46.20;;;;;;5044986;28;20181;-81
2023/02/16 10:35:41;;;;;;;37.47;28.37;;;9.70;42.80;;;;;;5049193;28;20210;-87
2023/02/16 10:38:20;;;;;;;38.73;27.27;;;9.80;43.30;;;;;;5051456;28;20173;-86
2023/02/16 10:40:51;;;;;;;36.40;27.20;;;9.90;40.90;;;;;;5046988;28;20821;-85
2023/02/16 10:43:23;;;;;;;39.40;28.30;;;10.00;40.70;;;;;;5051332;28;20378;-85
2023/02/16 10:45:55;;;;;;;37.53;27.77;;;10.00;41.00;;;;;;5047752;28;20201;-86
2023/02/16 10:48:22;;;;;;;33.07;26.97;;;10.10;40.30;;;;;;5044177;28;20181;-86
2023/02/16 10:51:08;;;;;;;33.90;27.23;;;10.20;38.90;;;;;;5058665;28;20556;-87
2023/02/16 10:53:44;;;;;;;38.00;28.20;;;10.30;35.90;;;;;;5039516;28;20177;-86
2023/02/16 10:56:48;;;;;;;36.43;27.57;;;10.40;33.80;;;;;;5040554;28;20584;-87
2023/02/16 10:59:21;;;;;;;36.77;27.47;;;10.70;30.90;;;;;;5034467;28;20216;-83
2023/02/16 11:01:50;;;;;;;37.87;27.43;;;10.90;25.30;;;;;;5033161;28;20174;-85
2023/02/16 11:04:38;;;;;;;38.93;29.53;;;10.90;23.30;;;;;;5040224;28;20170;-85
2023/02/16 11:07:16;;;;;;;36.73;27.13;;;10.90;21.90;;;;;;5038500;28;20254;-85
2023/02/16 11:09:44;;;;;;;36.53;27.97;;;11.10;20.50;;;;;;5047125;28;20180;-85
2023/02/16 11:12:32;;;;;;;33.90;27.53;;;11.10;17.80;;;;;;5049461;28;20165;-86
2023/02/16 11:15:20;;;;;;;34.03;26.67;;;11.20;16.30;;;;;;5049114;28;20173;-84
2023/02/16 11:17:50;;;;;;;31.03;24.77;;;11.30;13.60;;;;;;5041453;28;20220;-86
2023/02/16 11:20:34;;;;;;;34.73;25.20;;;11.20;12.10;;;;;;5036656;28;20202;-84
2023/02/16 11:23:23;;;;;;;33.77;25.00;;;11.10;13.70;;;;;;5045955;28;20209;-85
2023/02/16 11:26:02;;;;;;;33.10;25.53;;;11.00;18.00;;;;;;5050433;28;20192;-87
2023/02/16 11:28:49;;;;;;;34.93;25.33;;;11.00;20.20;;;;;;5060853;28;20184;-84
2023/02/16 11:31:23;;;;;;;30.57;23.00;;;11.10;20.90;;;;;;5040198;28;20181;-86
2023/02/16 11:33:56;;;;;;;29.03;23.00;;;11.20;17.10;;;;;;5039731;28;20183;-84
2023/02/16 11:36:31;;;;;;;29.47;23.40;;;11.30;16.90;;;;;;5046515;28;20169;-85
2023/02/16 11:39:14;;;;;;;27.13;21.60;;;11.30;14.70;;;;;;5049100;28;20272;-87
2023/02/16 11:41:47;;;;;;;27.70;22.97;;;11.40;13.10;;;;;;5045468;28;20173;-87
2023/02/16 11:44:30;;;;;;;26.90;21.37;;;11.60;8.50;;;;;;5044969;28;20587;-85
2023/02/16 11:47:03;;;;;;;25.93;21.33;;;11.70;3.70;;;;;;5046670;28;20180;-85
2023/02/16 11:49:33;;;;;;;24.27;20.57;;;11.90;1.00;;;;;;5053306;28;20182;-86
2023/02/16 11:52:16;;;;;;;27.27;21.00;;;11.90;1.00;;;;;;5056278;28;20257;-87
2023/02/16 11:54:48;;;;;;;29.10;20.87;;;11.80;1.00;;;;;;5059720;28;20189;-85
2023/02/16 11:57:35;;;;;;;26.40;20.63;;;11.70;4.30;;;;;;5047682;28;20189;-83
2023/02/16 12:00:18;;;;;;;27.93;21.20;;;11.70;2.70;;;;;;5047334;28;20210;-83
2023/02/16 12:03:05;;;;;;;26.47;20.43;;;11.80;4.90;;;;;;5052145;28;20205;-88
2023/02/16 12:06:06;;;;;;;30.80;21.67;;;11.80;3.20;;;;;;5044038;28;20218;-87
2023/02/16 12:08:43;;;;;;;25.00;20.93;;;11.80;4.70;;;;;;5061795;28;20170;-86
2023/02/16 12:11:48;;;;;;;26.53;20.50;;;12.00;1.70;;;;;;5068320;28;20157;-86
2023/02/16 12:15:20;;;;;;;27.83;20.03;;;12.00;2.90;;;;;;5064055;28;20193;-83
2023/02/16 12:18:13;;;;;;;27.87;19.77;;;12.20;1.70;;;;;;5036159;28;20680;-82
2023/02/16 12:21:08;;;;;;;26.00;19.77;;;12.10;1.50;;;;;;5048898;28;20216;-82
2023/02/16 12:23:53;;;;;;;25.13;20.03;;;12.10;1.60;;;;;;5054263;28;20178;-88
2023/02/16 12:26:33;;;;;;;26.13;19.60;;;12.10;3.40;;;;;;5057298;28;20561;-86
2023/02/16 12:29:25;;;;;;;26.40;20.43;;;12.20;4.70;;;;;;5055585;28;20233;-87
2023/02/16 12:32:30;;;;;;;27.57;20.20;;;12.20;4.10;;;;;;5044176;28;20645;-86
2023/02/16 12:35:11;;;;;;;25.77;19.53;;;12.50;1.00;;;;;;5041859;28;20637;-88
2023/02/16 12:38:02;;;;;;;25.93;19.60;;;12.70;1.00;;;;;;5044433;28;20177;-87
2023/02/16 12:40:40;;;;;;;20.73;17.93;;;12.80;1.00;;;;;;5045929;28;20175;-89
2023/02/16 12:43:33;;;;;;;25.57;18.60;;;12.90;1.00;;;;;;5047155;28;20180;-88
2023/02/16 12:46:17;;;;;;;24.30;18.63;;;12.90;1.00;;;;;;5060019;28;20170;-82
2023/02/16 12:48:56;;;;;;;25.47;19.13;;;13.10;1.00;;;;;;5060317;28;20169;-86
2023/02/16 12:51:44;;;;;;;24.20;18.77;;;13.10;1.00;;;;;;5057317;28;20160;-88
2023/02/16 12:54:41;;;;;;;22.63;17.00;;;13.20;1.00;;;;;;5029666;28;20702;-87
2023/02/16 12:57:27;;;;;;;22.57;18.77;;;13.20;1.00;;;;;;5027269;28;20266;-87
2023/02/16 12:59:59;;;;;;;21.97;17.97;;;13.10;1.00;;;;;;5028822;28;20191;-90
2023/02/16 13:02:46;;;;;;;22.73;17.47;;;13.10;1.00;;;;;;5026546;28;20168;-87
2023/02/16 13:05:23;;;;;;;21.83;18.53;;;13.20;1.00;;;;;;5022979;28;20180;-88
2023/02/16 13:07:55;;;;;;;23.50;19.67;;;13.10;1.00;;;;;;5021019;28;20169;-89
2023/02/16 13:10:36;;;;;;;27.77;20.57;;;13.10;1.00;;;;;;5026251;28;20660;-84
2023/02/16 13:13:32;;;;;;;25.57;20.97;;;13.10;1.00;;;;;;5022604;28;20170;-83
2023/02/16 13:16:36;;;;;;;26.30;21.20;;;13.00;1.00;;;;;;5024995;28;20196;-82
2023/02/16 13:19:02;;;;;;;26.97;21.87;;;13.00;1.00;;;;;;5026447;28;20218;-87
2023/02/16 13:21:27;;;;;;;26.43;21.53;;;12.90;1.00;;;;;;5022017;28;20670;-84
2023/02/16 13:23:59;;;;;;;27.30;20.97;;;12.90;1.00;;;;;;5024783;28;20185;-85
2023/02/16 13:26:56;;;;;;;28.90;21.23;;;13.10;1.00;;;;;;5024090;28;20197;-86
2023/02/16 13:29:43;;;;;;;28.83;20.77;;;13.10;1.00;;;;;;5022501;28;20242;-83
2023/02/16 13:32:42;;;;;;;26.47;20.57;;;13.10;1.00;;;;;;5033570;28;20170;-81
2023/02/16 13:35:32;;;;;;;26.23;20.43;;;13.10;1.00;;;;;;5024552;28;20185;-88
2023/02/16 13:38:22;;;;;;;27.13;20.77;;;13.10;1.00;;;;;;5020671;28;20202;-87
2023/02/16 13:41:26;;;;;;;28.17;20.20;;;13.10;1.00;;;;;;5020269;28;20184;-86
2023/02/16 13:43:59;;;;;;;23.97;19.70;;;13.10;1.00;;;;;;5024098;28;20213;-81
2023/02/16 13:46:33;;;;;;;28.47;21.33;;;13.00;1.00;;;;;;5034742;28;20155;-87
2023/02/16 13:49:01;;;;;;;28.33;22.57;;;13.00;1.00;;;;;;5036857;28;20227;-84
2023/02/16 13:51:42;;;;;;;27.27;21.33;;;13.00;1.00;;;;;;5033660;28;20179;-87
2023/02/16 13:54:31;;;;;;;26.17;21.80;;;13.10;1.00;;;;;;5041199;28;20601;-86
2023/02/16 13:56:57;;;;;;;26.97;22.63;;;13.10;1.00;;;;;;5055565;28;20243;-81
2023/02/16 13:59:25;;;;;;;26.70;21.93;;;13.10;1.00;;;;;;5046748;28;20661;-84
2023/02/16 14:01:57;;;;;;;26.77;21.73;;;13.10;1.00;;;;;;5046235;28;20167;-86
2023/02/16 14:04:23;;;;;;;27.00;20.63;;;13.10;1.00;;;;;;5049872;28;20182;-86
2023/02/16 14:07:06;;;;;;;27.63;22.37;;;13.30;1.00;;;;;;5042653;28;20152;-84
2023/02/16 14:09:40;;;;;;;29.47;22.13;;;13.20;1.00;;;;;;5038952;28;20178;-83
2023/02/16 14:12:41;;;;;;;29.23;22.57;;;13.30;1.00;;;;;;5041827;28;20192;-89
2023/02/16 14:15:19;;;;;;;28.23;22.20;;;13.30;1.00;;;;;;5040718;28;20177;-87